Time;durP1;ratioP1;P1;durP2;ratioP2;P2;SDS_P1;SDS_P2;PMS_P1;PMS_P2;Temp;Humidity;BMP_temperature;BMP_pressure;BME280_temperature;BME280_humidity;BME280_pressure;Samples;Min_cycle;Max_cycle;Signal;HPM_P1;HPM_P2
2021/11/30 00:01:41;;;;;;;;;3.75;3.25;;;;;12.80;73.99;99573.56;146608;595;46010;-75
2021/11/30 00:04:33;;;;;;;;;4.25;2.50;;;;;12.79;72.61;99575.28;146606;664;46914;-75
2021/11/30 00:07:25;;;;;;;;;8.25;6.00;;;;;12.74;74.88;99596.81;146604;645;46020;-74
2021/11/30 00:13:24;;;;;;;;;11.25;9.25;;;;;12.57;75.55;99591.22;146608;596;46020;-74
2021/11/30 00:16:16;;;;;;;;;6.25;4.75;;;;;12.52;73.80;99605.81;146605;564;46016;-72
2021/11/30 00:19:08;;;;;;;;;2.00;1.75;;;;;12.50;74.83;99600.59;146609;581;46020;-71
2021/11/30 00:22:01;;;;;;;;;4.00;3.00;;;;;12.52;74.32;99611.00;146602;572;47013;-72
2021/11/30 00:24:54;;;;;;;;;1.25;1.00;;;;;12.52;73.14;99596.28;146609;645;46010;-72
2021/11/30 00:27:46;;;;;;;;;1.00;0.00;;;;;12.51;73.41;99598.84;146606;585;46012;-71
2021/11/30 00:30:40;;;;;;;;;0.00;0.00;;;;;12.54;71.47;99598.94;146604;683;46021;-72
2021/11/30 00:33:32;;;;;;;;;1.00;1.00;;;;;12.60;72.28;99605.16;146604;592;46016;-71
2021/11/30 00:36:24;;;;;;;;;6.75;4.50;;;;;12.66;72.62;99620.03;146604;610;46020;-73
2021/11/30 00:39:17;;;;;;;;;1.00;1.00;;;;;12.71;71.43;99603.72;146603;695;46014;-72
2021/11/30 00:42:09;;;;;;;;;1.00;0.50;;;;;12.79;70.13;99622.09;146606;602;46020;-72
2021/11/30 00:45:04;;;;;;;;;0.00;0.00;;;;;12.81;67.82;99577.94;146607;618;46013;-75
2021/11/30 00:47:56;;;;;;;;;1.00;1.00;;;;;12.81;67.61;99583.13;146606;587;46010;-74
2021/11/30 00:50:48;;;;;;;;;1.00;0.00;;;;;12.81;66.83;99604.81;146602;581;46012;-73
2021/11/30 00:53:41;;;;;;;;;0.00;0.00;;;;;12.82;68.72;99634.31;146606;578;47010;-74
2021/11/30 00:56:33;;;;;;;;;0.25;0.25;;;;;12.80;67.13;99630.78;146605;580;47012;-74
2021/11/30 00:59:29;;;;;;;;;0.33;0.00;;;;;12.78;67.35;99656.78;146611;636;45021;-75
2021/11/30 01:02:21;;;;;;;;;10.00;9.00;;;;;12.79;67.55;99627.31;146604;586;46016;-74
2021/11/30 01:05:14;;;;;;;;;5.50;5.25;;;;;12.76;68.34;99683.56;146604;608;46020;-74
2021/11/30 01:08:07;;;;;;;;;3.00;3.00;;;;;12.75;67.12;99708.72;146605;614;46014;-74
2021/11/30 01:10:59;;;;;;;;;26.00;21.00;;;;;12.70;66.65;99705.97;146607;569;46020;-71
2021/11/30 01:13:52;;;;;;;;;21.50;21.50;;;;;12.69;66.32;99712.03;146603;654;46016;-73
2021/11/30 01:16:43;;;;;;;;;8.25;7.00;;;;;12.66;66.82;99695.47;146607;623;46020;-75
2021/11/30 01:19:36;;;;;;;;;4.50;3.00;;;;;12.58;64.81;99674.44;146605;569;47012;-74
2021/11/30 01:22:28;;;;;;;;;5.00;5.00;;;;;12.56;64.88;99691.75;146609;583;45039;-74
2021/11/30 01:25:20;;;;;;;;;0.25;0.25;;;;;12.59;63.45;99715.22;146604;583;46016;-74
2021/11/30 01:28:12;;;;;;;;;3.00;0.00;;;;;12.59;62.56;99735.16;146603;689;47010;-73
2021/11/30 01:31:05;;;;;;;;;0.00;0.00;;;;;12.64;64.46;99768.22;146602;647;47012;-73
2021/11/30 01:33:57;;;;;;;;;1.00;1.00;;;;;12.70;64.30;99762.31;146605;563;46020;-73
2021/11/30 01:36:49;;;;;;;;;3.75;2.75;;;;;12.71;63.49;99764.09;146601;564;46914;-73
2021/11/30 01:39:42;;;;;;;;;1.00;1.00;;;;;12.73;63.87;99791.03;146607;623;46020;-80
2021/11/30 01:42:34;;;;;;;;;0.00;0.00;;;;;12.65;60.57;99784.75;146607;653;46016;-79
2021/11/30 01:45:41;;;;;;;;;0.00;0.00;;;;;12.54;58.71;99762.75;146609;668;46021;-79
2021/11/30 01:51:43;;;;;;;;;0.00;0.00;;;;;12.37;59.08;99733.69;146607;677;46020;-78
2021/11/30 01:54:43;;;;;;;;;0.00;0.00;;;;;12.34;58.98;99752.69;146604;708;47012;-76
2021/11/30 01:57:37;;;;;;;;;0.00;0.00;;;;;12.27;59.15;99750.72;146608;573;46010;-74
2021/11/30 02:00:29;;;;;;;;;0.00;0.00;;;;;12.22;59.19;99771.38;146603;726;46017;-72
2021/11/30 02:03:22;;;;;;;;;0.00;0.00;;;;;12.12;59.06;99756.38;146607;611;46020;-72
2021/11/30 02:06:14;;;;;;;;;0.00;0.00;;;;;12.13;59.32;99736.47;146604;629;46017;-72
2021/11/30 02:09:07;;;;;;;;;1.00;1.00;;;;;12.15;58.78;99727.88;146607;593;46010;-72
2021/11/30 02:12:00;;;;;;;;;0.50;0.25;;;;;12.17;58.76;99721.00;146605;585;46012;-72
2021/11/30 02:14:53;;;;;;;;;0.00;0.00;;;;;12.16;58.30;99714.03;146609;598;46010;-73
2021/11/30 02:17:45;;;;;;;;;0.00;0.00;;;;;12.15;58.77;99730.47;146604;650;46014;-75
2021/11/30 02:20:38;;;;;;;;;0.00;0.00;;;;;12.14;59.35;99753.81;146609;610;46010;-73
2021/11/30 02:23:46;;;;;;;;;0.00;0.00;;;;;12.12;59.34;99743.38;146601;584;46014;-73
2021/11/30 02:26:39;;;;;;;;;0.00;0.00;;;;;12.10;58.10;99721.66;146606;606;46010;-74
2021/11/30 02:29:32;;;;;;;;;0.00;0.00;;;;;12.09;57.90;99748.50;146605;617;46016;-74
2021/11/30 02:32:24;;;;;;;;;0.00;0.00;;;;;12.09;58.14;99758.88;146604;633;47010;-74
2021/11/30 02:35:16;;;;;;;;;2.00;0.00;;;;;12.12;58.81;99768.47;146602;573;46016;-76
2021/11/30 02:38:09;;;;;;;;;0.00;0.00;;;;;12.15;58.88;99772.06;146608;631;46010;-75
2021/11/30 02:41:02;;;;;;;;;0.00;0.00;;;;;12.19;58.21;99770.44;146604;651;46016;-76
2021/11/30 02:43:54;;;;;;;;;0.00;0.00;;;;;12.22;58.46;99765.31;146606;610;47011;-75
2021/11/30 02:46:56;;;;;;;;;0.00;0.00;;;;;12.24;59.53;99774.94;146607;643;46016;-77
2021/11/30 02:49:49;;;;;;;;;0.25;0.25;;;;;9.84;58.67;99366.25;146605;631;46020;-76
2021/11/30 02:52:41;;;;;;;;;0.00;0.00;;;;;12.31;57.47;99772.50;146609;602;46914;-78
2021/11/30 02:55:33;;;;;;;;;0.00;0.00;;;;;12.35;57.69;99770.03;146609;658;46010;-76
2021/11/30 02:58:25;;;;;;;;;4.75;4.75;;;;;12.40;57.49;99771.06;146603;564;46914;-74
2021/11/30 03:01:17;;;;;;;;;2.00;2.00;;;;;12.46;57.96;99793.72;146608;581;46020;-75
2021/11/30 03:04:17;;;;;;;;;0.00;0.00;;;;;12.52;57.69;99798.22;146605;581;46014;-75
2021/11/30 03:07:14;;;;;;;;;0.00;0.00;;;;;12.54;57.96;99806.97;146610;665;46010;-74
2021/11/30 03:10:09;;;;;;;;;0.00;0.00;;;;;12.55;58.23;99819.09;146608;587;46012;-75
2021/11/30 03:13:02;;;;;;;;;0.00;0.00;;;;;12.53;57.67;99810.41;146611;575;46020;-80
2021/11/30 03:15:56;;;;;;;;;0.00;0.00;;;;;12.50;56.42;99819.00;146606;585;46012;-80
2021/11/30 03:18:49;;;;;;;;;0.00;0.00;;;;;11.79;56.85;99699.94;146612;577;45050;-77
2021/11/30 03:21:41;;;;;;;;;1.00;0.00;;;;;12.50;58.16;99815.50;146607;587;46014;-77
2021/11/30 03:24:34;;;;;;;;;0.00;0.00;;;;;12.50;57.37;99800.78;146611;591;46010;-77
2021/11/30 03:27:27;;;;;;;;;0.00;0.00;;;;;12.50;57.54;99805.13;146608;603;46013;-76
2021/11/30 03:30:22;;;;;;;;;0.00;0.00;;;;;12.49;57.50;99780.81;146610;609;46020;-74
2021/11/30 03:36:24;;;;;;;;;0.00;0.00;;;;;12.50;58.49;99768.72;146610;642;46021;-74
2021/11/30 03:39:20;;;;;;;;;3.00;0.00;;;;;12.47;58.42;99766.91;146608;602;46012;-74
2021/11/30 03:42:12;;;;;;;;;0.00;0.00;;;;;12.45;58.50;99789.38;146608;599;46020;-73
2021/11/30 03:45:04;;;;;;;;;0.00;0.00;;;;;12.46;58.45;99801.53;146609;590;46012;-74
2021/11/30 03:47:57;;;;;;;;;0.00;0.00;;;;;12.47;57.78;99796.38;146613;606;45020;-76
2021/11/30 03:50:49;;;;;;;;;0.67;0.00;;;;;12.47;57.86;99801.56;146610;694;46013;-74
2021/11/30 03:53:41;;;;;;;;;0.00;0.00;;;;;12.47;57.81;99804.19;146610;565;46020;-75
2021/11/30 03:56:33;;;;;;;;;0.00;0.00;;;;;12.45;57.68;99808.44;146606;636;46017;-75
2021/11/30 03:59:26;;;;;;;;;0.00;0.00;;;;;12.45;57.54;99813.62;146608;647;46021;-74
2021/11/30 04:02:18;;;;;;;;;0.00;0.00;;;;;12.41;56.98;99814.41;146606;609;46034;-78
2021/11/30 04:05:13;;;;;;;;;0.33;0.00;;;;;12.35;56.82;99816.81;146608;621;46021;-79
2021/11/30 04:08:05;;;;;;;;;0.00;0.00;;;;;12.29;58.68;99815.75;146605;590;46016;-80
2021/11/30 04:10:57;;;;;;;;;0.75;0.00;;;;;12.16;58.80;99805.00;146609;573;46010;-78
2021/11/30 04:13:49;;;;;;;;;0.00;0.00;;;;;11.95;59.49;99823.41;146606;566;46017;-80
2021/11/30 04:16:42;;;;;;;;;0.00;0.00;;;;;11.82;60.45;99842.00;146609;565;46010;-79
2021/11/30 04:19:34;;;;;;;;;0.00;0.00;;;;;11.76;60.66;99834.88;146606;605;46016;-79
2021/11/30 04:22:25;;;;;;;;;0.00;0.00;;;;;11.73;60.63;99836.50;146610;678;45020;-81
2021/11/30 04:25:18;;;;;;;;;0.00;0.00;;;;;11.70;58.18;99834.69;146606;620;46014;-81
2021/11/30 04:28:10;;;;;;;;;0.00;0.00;;;;;11.74;59.20;99851.25;146606;573;46021;-80
2021/11/30 04:31:03;;;;;;;;;0.00;0.00;;;;;11.76;60.20;99839.22;146608;566;47012;-80
2021/11/30 04:33:55;;;;;;;;;0.00;0.00;;;;;11.78;59.70;99850.53;146607;599;46020;-80
2021/11/30 04:36:48;;;;;;;;;0.00;0.00;;;;;11.79;58.04;99854.88;146606;685;46014;-74
2021/11/30 04:39:40;;;;;;;;;0.00;0.00;;;;;11.80;58.00;99838.47;146611;624;46010;-74
2021/11/30 04:42:32;;;;;;;;;0.00;0.00;;;;;11.84;59.27;99842.94;146606;582;46013;-76
2021/11/30 04:45:32;;;;;;;;;0.00;0.00;;;;;11.87;57.92;99843.06;146606;579;46010;-75
2021/11/30 04:48:25;;;;;;;;;0.00;0.00;;;;;11.91;59.73;99842.34;146606;591;46012;-75
2021/11/30 04:51:17;;;;;;;;;0.00;0.00;;;;;11.89;56.86;99853.50;146607;599;46014;-69
2021/11/30 04:54:09;;;;;;;;;0.00;0.00;;;;;11.89;57.49;99862.16;146605;589;46016;-69
2021/11/30 04:57:01;;;;;;;;;0.00;0.00;;;;;11.96;58.13;99864.16;146607;616;46020;-70
2021/11/30 04:59:54;;;;;;;;;0.00;0.00;;;;;11.98;57.84;99878.06;146608;631;46012;-73
2021/11/30 05:02:46;;;;;;;;;0.00;0.00;;;;;11.98;57.84;99861.59;146606;641;46020;-75
2021/11/30 05:05:38;;;;;;;;;0.00;0.00;;;;;11.96;58.56;99858.97;146605;690;46012;-76
2021/11/30 05:08:32;;;;;;;;;0.00;0.00;;;;;11.97;58.72;99870.22;146608;578;46020;-74
2021/11/30 05:11:25;;;;;;;;;0.25;0.25;;;;;11.95;59.87;99875.34;146606;643;46014;-73
2021/11/30 05:14:17;;;;;;;;;0.00;0.00;;;;;11.93;58.90;99870.94;146606;608;46020;-73
2021/11/30 05:17:09;;;;;;;;;1.00;1.00;;;;;11.87;58.97;99876.84;146605;565;46016;-71
2021/11/30 05:20:01;;;;;;;;;0.25;0.25;;;;;11.79;59.21;99879.16;146609;596;46011;-73
2021/11/30 05:22:54;;;;;;;;;2.25;0.75;;;;;11.71;59.82;99883.22;146605;592;46016;-69
2021/11/30 05:25:47;;;;;;;;;1.00;1.00;;;;;11.64;60.28;99898.53;146607;657;46020;-73
2021/11/30 05:28:42;;;;;;;;;1.50;1.50;;;;;11.56;60.67;99912.16;146605;636;46016;-73
2021/11/30 05:31:34;;;;;;;;;0.50;0.50;;;;;11.49;60.53;99910.16;146607;571;46020;-76
2021/11/30 05:34:27;;;;;;;;;0.00;0.00;;;;;11.44;60.92;99916.03;146607;569;46914;-72
2021/11/30 05:37:19;;;;;;;;;0.50;0.50;;;;;11.35;61.84;99908.81;146608;592;46020;-72
2021/11/30 05:40:12;;;;;;;;;3.00;0.00;;;;;11.26;61.43;99918.88;146607;625;46012;-75
2021/11/30 05:43:04;;;;;;;;;2.00;2.00;;;;;11.20;61.75;99918.66;146607;655;46021;-77
2021/11/30 05:45:57;;;;;;;;;1.75;1.50;;;;;11.18;61.71;99918.56;146607;579;46014;-71
2021/11/30 05:48:49;;;;;;;;;3.75;2.50;;;;;10.12;61.55;99741.00;146608;579;45021;-72
2021/11/30 05:51:41;;;;;;;;;3.75;3.00;;;;;11.24;61.68;99926.59;146607;654;46012;-68
2021/11/30 05:54:34;;;;;;;;;9.00;7.00;;;;;11.29;61.08;99940.63;146603;668;46020;-69
2021/11/30 05:57:26;;;;;;;;;6.75;6.00;;;;;11.33;61.42;99950.25;146606;592;46012;-72
2021/11/30 06:00:19;;;;;;;;;7.00;6.00;;;;;11.40;62.88;99966.06;146609;641;46010;-72
2021/11/30 06:03:28;;;;;;;;;5.00;5.00;;;;;11.49;61.42;99964.66;146606;586;46012;-73
2021/11/30 06:06:21;;;;;;;;;6.00;6.00;;;;;11.59;62.51;99965.00;146609;563;46010;-71
2021/11/30 06:09:14;;;;;;;;;5.00;5.00;;;;;11.68;62.02;99981.81;146604;580;46016;-74
2021/11/30 06:12:06;;;;;;;;;6.00;4.00;;;;;10.84;60.71;99797.16;146610;699;46014;-73
2021/11/30 06:14:58;;;;;;;;;1.50;0.50;;;;;12.14;58.94;99964.31;146602;563;46913;-73
2021/11/30 06:17:51;;;;;;;;;3.75;3.00;;;;;13.15;58.34;99959.62;146609;587;46010;-74
2021/11/30 06:20:43;;;;;;;;;2.00;2.00;;;;;14.51;56.40;99957.94;146605;583;47012;-74
2021/11/30 06:23:35;;;;;;;;;6.50;5.25;;;;;15.79;53.62;99947.53;146607;599;46020;-74
2021/11/30 06:26:28;;;;;;;;;1.75;1.75;;;;;16.46;51.87;99948.63;146607;579;45017;-75
2021/11/30 06:29:20;;;;;;;;;1.00;1.00;;;;;16.87;49.26;99951.00;146609;576;46010;-75
2021/11/30 06:32:13;;;;;;;;;3.75;2.00;;;;;16.95;48.36;99938.00;146605;569;46012;-72
2021/11/30 06:35:04;;;;;;;;;3.25;3.25;;;;;16.93;49.39;99953.69;146607;567;46021;-72
2021/11/30 06:37:57;;;;;;;;;3.67;3.67;;;;;17.06;50.96;99959.97;146604;583;46016;-73
2021/11/30 06:40:49;;;;;;;;;8.33;3.00;;;;;17.40;49.32;99950.75;146611;579;46010;-78
2021/11/30 06:43:41;;;;;;;;;2.00;2.00;;;;;17.94;49.10;99954.87;146605;595;46016;-79
2021/11/30 06:46:34;;;;;;;;;4.67;4.00;;;;;18.66;47.98;99958.03;146611;598;45020;-75
2021/11/30 06:49:26;;;;;;;;;9.75;7.25;;;;;19.36;46.94;99956.63;146604;576;46017;-77
2021/11/30 06:52:18;;;;;;;;;8.50;7.50;;;;;20.11;45.62;99976.97;146606;591;46020;-78
2021/11/30 06:55:12;;;;;;;;;3.00;2.00;;;;;20.69;44.73;99979.59;146608;592;46013;-78
2021/11/30 06:58:04;;;;;;;;;3.00;1.00;;;;;21.05;41.93;99970.69;146609;628;46020;-76
2021/11/30 07:00:56;;;;;;;;;7.00;6.00;;;;;21.42;41.22;99984.66;146607;596;46012;-78
2021/11/30 07:03:49;;;;;;;;;1.00;0.67;;;;;21.73;41.09;99992.41;146610;606;46010;-73
2021/11/30 07:10:23;;;;;;;;;2.33;2.33;;;;;22.36;40.06;99991.97;146610;569;46021;-79
2021/11/30 07:16:28;;;;;;;;;6.50;4.00;;;;;22.63;38.64;100013.75;146608;592;46010;-72
2021/11/30 07:19:20;;;;;;;;;6.00;5.00;;;;;22.59;37.87;100005.88;146603;576;46017;-72
2021/11/30 07:22:12;;;;;;;;;2.00;2.00;;;;;22.44;38.49;100005.12;146608;669;46020;-71
2021/11/30 07:25:05;;;;;;;;;0.00;0.00;;;;;22.29;38.38;100011.41;146605;664;46016;-72
2021/11/30 07:27:58;;;;;;;;;1.67;1.67;;;;;22.05;39.20;100015.94;146610;591;45021;-71
2021/11/30 07:30:50;;;;;;;;;0.67;0.67;;;;;21.78;38.84;100017.00;146606;569;47012;-79
2021/11/30 07:33:48;;;;;;;;;2.00;0.00;;;;;21.44;40.65;100017.19;146608;598;46010;-82
2021/11/30 07:36:40;;;;;;;;;0.33;0.00;;;;;21.05;39.76;100019.91;146607;634;46014;-75
2021/11/30 07:39:33;;;;;;;;;0.00;0.00;;;;;20.73;41.53;100019.09;146608;578;46020;-73
2021/11/30 07:42:30;;;;;;;;;0.00;0.00;;;;;20.46;41.30;100030.50;146607;674;46012;-73
2021/11/30 07:45:22;;;;;;;;;0.67;0.67;;;;;20.25;42.20;100041.03;146608;590;47010;-68
2021/11/30 07:48:16;;;;;;;;;0.67;0.67;;;;;20.12;42.17;100057.66;146606;569;46017;-68
2021/11/30 07:51:15;;;;;;;;;0.67;0.67;;;;;19.94;43.22;100056.78;146609;592;46010;-69
2021/11/30 07:54:07;;;;;;;;;0.00;0.00;;;;;19.75;42.24;100061.09;146605;590;47012;-70
2021/11/30 07:56:59;;;;;;;;;0.00;0.00;;;;;19.61;42.80;100079.41;146608;587;47010;-70
2021/11/30 07:59:51;;;;;;;;;0.00;0.00;;;;;19.55;44.01;100087.28;146608;631;46012;-73
2021/11/30 08:02:44;;;;;;;;;0.00;0.00;;;;;18.65;43.45;99932.63;146609;595;46011;-83
2021/11/30 08:05:36;;;;;;;;;0.33;0.00;;;;;19.52;42.77;100084.63;146606;729;46016;-92
2021/11/30 08:08:29;;;;;;;;;0.00;0.00;;;;;19.56;41.46;100090.78;146610;636;46020;-82
2021/11/30 08:11:21;;;;;;;;;0.67;0.67;;;;;19.49;41.13;100096.91;146609;571;46012;-88
2021/11/30 08:14:15;;;;;;;;;0.67;0.67;;;;;19.42;45.89;100116.16;146608;576;46020;-88
2021/11/30 08:17:13;;;;;;;;;1.00;1.00;;;;;19.50;46.72;100111.78;146608;576;46016;-87
2021/11/30 08:20:05;;;;;;;;;1.67;1.67;;;;;19.66;49.36;100112.78;146610;572;46010;-93
2021/11/30 08:22:58;;;;;;;;;2.33;1.00;;;;;19.82;46.38;100114.63;146606;692;46016;-85
2021/11/30 08:25:50;;;;;;;;;0.00;0.00;;;;;19.90;41.52;100109.38;146608;564;46021;-83
2021/11/30 08:28:44;;;;;;;;;0.00;0.00;;;;;19.84;41.03;100107.59;146607;615;46012;-81
2021/11/30 08:31:37;;;;;;;;;0.67;0.67;;;;;19.74;46.90;100106.69;146611;569;46010;-81
2021/11/30 08:34:30;;;;;;;;;0.33;0.00;;;;;19.77;45.63;100114.59;146607;596;46012;-76
2021/11/30 08:37:22;;;;;;;;;1.00;0.00;;;;;19.92;45.09;100111.13;146609;610;46020;-79
2021/11/30 08:40:15;;;;;;;;;2.00;1.00;;;;;20.13;44.79;100112.09;146607;577;46016;-90
2021/11/30 08:43:08;;;;;;;;;1.67;1.67;;;;;20.31;42.70;100096.31;146610;571;46010;-78
2021/11/30 08:46:00;;;;;;;;;4.00;3.00;;;;;20.43;45.04;100098.94;146607;581;46012;-82
2021/11/30 08:48:52;;;;;;;;;0.67;0.67;;;;;20.39;43.01;100106.88;146609;599;46011;-81
2021/11/30 08:51:44;;;;;;;;;0.00;0.00;;;;;20.24;42.03;100110.34;146604;686;47012;-83
2021/11/30 08:54:37;;;;;;;;;0.00;0.00;;;;;20.23;41.72;100127.91;146609;600;46020;-84
2021/11/30 08:57:31;;;;;;;;;0.00;0.00;;;;;20.22;40.35;100135.81;146607;594;47012;-84
2021/11/30 09:00:27;;;;;;;;;0.67;0.67;;;;;20.18;40.26;100126.13;146609;607;46020;-84
2021/11/30 09:03:19;;;;;;;;;0.67;0.00;;;;;20.17;41.16;100133.16;146606;591;46013;-83
2021/11/30 09:06:11;;;;;;;;;0.00;0.00;;;;;20.19;39.86;100130.53;146611;569;46010;-82
2021/11/30 09:09:03;;;;;;;;;1.33;1.00;;;;;20.17;41.01;100145.44;146606;627;46016;-83
2021/11/30 09:11:57;;;;;;;;;4.00;2.33;;;;;20.06;40.41;100141.03;146608;584;46010;-81
2021/11/30 09:14:50;;;;;;;;;2.33;2.00;;;;;20.00;42.09;100145.34;146607;565;46012;-82
2021/11/30 09:17:44;;;;;;;;;4.00;4.00;;;;;19.95;41.63;100137.47;146608;590;46021;-83
2021/11/30 09:20:36;;;;;;;;;1.33;0.33;;;;;19.89;39.38;100141.81;146607;598;46016;-82
2021/11/30 09:23:29;;;;;;;;;0.67;0.67;;;;;19.68;39.22;100153.13;146609;636;46020;-81
2021/11/30 09:26:21;;;;;;;;;0.33;0.33;;;;;19.49;40.36;100170.53;146605;651;47012;-82
2021/11/30 09:29:13;;;;;;;;;1.00;1.00;;;;;19.41;41.32;100159.06;146609;574;46020;-81
2021/11/30 09:32:08;;;;;;;;;1.00;1.00;;;;;19.53;41.60;100159.13;146604;621;46017;-82
2021/11/30 09:35:02;;;;;;;;;1.00;0.00;;;;;19.73;40.37;100156.66;146608;612;46010;-82
2021/11/30 09:37:56;;;;;;;;;2.00;1.00;;;;;20.00;39.69;100158.50;146607;610;46014;-82
2021/11/30 09:40:54;;;;;;;;;0.00;0.00;;;;;20.17;37.56;100151.56;146608;587;46021;-82
2021/11/30 09:43:46;;;;;;;;;0.00;0.00;;;;;20.16;36.68;100159.47;146604;648;46016;-81
2021/11/30 09:46:40;;;;;;;;;0.00;0.00;;;;;20.01;36.25;100160.28;146607;569;46010;-75
2021/11/30 09:49:34;;;;;;;;;0.00;0.00;;;;;19.87;38.48;100154.09;146607;584;46012;-84
2021/11/30 09:52:27;;;;;;;;;3.67;3.67;;;;;19.84;39.57;100157.56;146610;565;46020;-82
2021/11/30 09:55:22;;;;;;;;;0.00;0.00;;;;;19.94;37.87;100153.25;146607;576;46016;-83
2021/11/30 09:58:14;;;;;;;;;0.33;0.00;;;;;19.96;37.65;100154.12;146609;591;46014;-82
2021/11/30 10:01:11;;;;;;;;;1.00;0.00;;;;;19.92;39.29;100150.59;146606;631;46013;-85
2021/11/30 10:04:04;;;;;;;;;1.00;0.00;;;;;19.94;38.90;100143.59;146609;675;46010;-83
2021/11/30 10:06:56;;;;;;;;;5.67;4.33;;;;;20.04;40.72;100148.03;146606;577;46014;-74
2021/11/30 10:09:48;;;;;;;;;0.00;0.00;;;;;20.17;36.72;100140.16;146608;630;46021;-84
2021/11/30 10:12:40;;;;;;;;;0.00;0.00;;;;;20.16;35.97;100146.31;146606;675;47012;-85
2021/11/30 10:15:35;;;;;;;;;0.33;0.00;;;;;20.13;38.29;100154.19;146607;565;46010;-80
2021/11/30 10:18:45;;;;;;;;;1.00;1.00;;;;;20.18;39.84;100147.19;146606;593;46914;-86
2021/11/30 10:21:38;;;;;;;;;1.67;0.67;;;;;20.26;36.21;100156.88;146611;563;45031;-85
2021/11/30 10:24:30;;;;;;;;;0.00;0.00;;;;;20.21;34.24;100163.84;146606;613;47013;-86
2021/11/30 10:27:33;;;;;;;;;0.00;0.00;;;;;20.14;38.28;100153.31;146608;577;46020;-86
2021/11/30 10:30:37;;;;;;;;;0.00;0.00;;;;;20.16;37.64;100154.22;146608;598;46016;-82
2021/11/30 10:33:33;;;;;;;;;0.00;0.00;;;;;20.21;36.05;100144.56;146613;646;45021;-83
2021/11/30 10:36:25;;;;;;;;;0.00;0.00;;;;;20.26;35.68;100146.34;146607;598;46016;-80
2021/11/30 10:39:24;;;;;;;;;0.67;0.00;;;;;20.27;37.15;100139.31;146607;597;46020;-80
2021/11/30 10:42:27;;;;;;;;;0.00;0.00;;;;;20.25;36.86;100138.44;146605;666;46016;-84
2021/11/30 10:45:53;;;;;;;;;0.00;0.00;;;;;19.41;36.36;99977.66;146607;565;46015;-86
2021/11/30 10:48:46;;;;;;;;;0.00;0.00;;;;;20.46;35.40;100148.13;146606;564;46016;-85
2021/11/30 10:51:50;;;;;;;;;0.00;0.00;;;;;20.56;37.11;100152.59;146608;598;46020;-81
2021/11/30 10:54:42;;;;;;;;;0.00;0.00;;;;;20.60;35.18;100159.59;146605;564;46017;-89
2021/11/30 10:57:36;;;;;;;;;0.00;0.00;;;;;20.60;35.51;100156.97;146608;633;46029;-86
2021/11/30 11:00:33;;;;;;;;;0.67;0.67;;;;;20.41;35.31;100158.66;146607;627;46013;-90
2021/11/30 11:03:26;;;;;;;;;2.00;1.00;;;;;20.40;35.30;100164.78;146608;610;46010;-88
2021/11/30 11:06:30;;;;;;;;;1.67;0.67;;;;;20.56;36.57;100162.22;146605;587;46016;-88
2021/11/30 11:09:51;;;;;;;;;0.67;0.33;;;;;20.68;38.58;100147.28;146608;624;46021;-90
2021/11/30 11:12:43;;;;;;;;;1.00;1.00;;;;;20.71;35.65;100144.66;146606;631;46014;-90
2021/11/30 11:15:43;;;;;;;;;0.67;0.67;;;;;20.66;35.58;100148.19;146606;606;46020;-89
2021/11/30 11:18:44;;;;;;;;;0.00;0.00;;;;;20.53;34.89;100155.22;146605;571;46012;-88
2021/11/30 11:21:56;;;;;;;;;0.67;0.67;;;;;20.25;38.23;100155.13;146609;582;46010;-89
2021/11/30 11:24:50;;;;;;;;;1.00;0.00;;;;;19.88;36.67;100169.91;146606;594;46016;-88
2021/11/30 11:27:43;;;;;;;;;1.00;1.00;;;;;19.51;36.69;100166.16;146606;608;47014;-91
2021/11/30 11:30:35;;;;;;;;;0.00;0.00;;;;;19.30;36.98;100170.41;146606;701;46012;-91
2021/11/30 11:33:27;;;;;;;;;13.00;10.67;;;;;19.33;38.92;100165.16;146609;681;46010;-92
2021/11/30 11:36:20;;;;;;;;;3.33;3.00;;;;;19.54;38.69;100160.91;146604;569;46016;-87
2021/11/30 11:39:14;;;;;;;;;2.67;2.00;;;;;19.66;41.68;100181.16;146606;672;47010;-87
2021/11/30 11:42:13;;;;;;;;;3.33;2.00;;;;;19.55;38.67;100187.22;146604;576;46016;-92
2021/11/30 11:45:05;;;;;;;;;1.00;0.33;;;;;19.37;37.69;100201.09;146607;593;46011;-85
2021/11/30 11:48:05;;;;;;;;;2.67;1.00;;;;;19.25;37.97;100205.41;146604;572;46016;-87
2021/11/30 11:51:03;;;;;;;;;4.00;3.00;;;;;19.08;39.44;100213.16;146608;599;46020;-88
2021/11/30 11:53:59;;;;;;;;;1.00;1.00;;;;;18.77;39.03;100209.38;146605;622;46016;-89
2021/11/30 11:57:07;;;;;;;;;4.00;3.00;;;;;18.39;38.81;100229.06;146608;578;46028;-87
2021/11/30 11:59:59;;;;;;;;;0.00;0.00;;;;;17.90;38.91;100241.56;146605;579;47014;-89
2021/11/30 12:02:57;;;;;;;;;2.00;2.00;;;;;17.52;41.93;100244.47;146610;633;46010;-89
2021/11/30 12:05:52;;;;;;;;;1.33;1.00;;;;;17.58;41.87;100241.06;146606;598;46013;-89
2021/11/30 12:09:04;;;;;;;;;1.00;0.00;;;;;18.00;38.69;100240.81;146612;607;46010;-86
2021/11/30 12:12:00;;;;;;;;;2.00;2.00;;;;;18.56;40.56;100234.50;146606;627;47012;-88
2021/11/30 12:14:54;;;;;;;;;1.00;1.00;;;;;19.16;40.07;100232.50;146609;602;46011;-90
2021/11/30 12:17:47;;;;;;;;;2.00;1.00;;;;;19.66;37.54;100226.78;146607;666;46016;-87
2021/11/30 12:20:49;;;;;;;;;2.00;1.00;;;;;20.03;37.35;100225.22;146609;582;46020;-89
2021/11/30 12:23:41;;;;;;;;;2.67;1.67;;;;;20.26;37.54;100224.44;146607;565;46012;-88
2021/11/30 12:26:42;;;;;;;;;0.00;0.00;;;;;20.49;35.72;100229.78;146610;618;46010;-90
2021/11/30 12:29:39;;;;;;;;;1.33;1.33;;;;;20.63;36.13;100232.50;146606;582;46914;-90
2021/11/30 12:32:38;;;;;;;;;6.00;5.50;;;;;20.85;36.70;100236.91;146608;635;46010;-92
2021/11/30 12:35:58;;;;;;;;;3.00;1.33;;;;;21.06;37.18;100243.97;146606;668;46016;-89
2021/11/30 12:39:01;;;;;;;;;2.67;2.67;;;;;21.15;37.20;100244.00;146607;601;46020;-91
2021/11/30 12:41:56;;;;;;;;;4.67;4.67;;;;;21.38;35.87;100249.28;146606;676;47012;-75
2021/11/30 12:44:48;;;;;;;;;0.00;0.00;;;;;21.66;35.21;100268.59;146607;575;46021;-89
2021/11/30 12:47:41;;;;;;;;;2.67;2.00;;;;;21.83;34.92;100275.59;146607;589;46012;-86
2021/11/30 12:50:34;;;;;;;;;3.33;3.00;;;;;22.02;37.16;100285.22;146605;584;46020;-74
2021/11/30 12:53:46;;;;;;;;;2.67;2.67;;;;;22.24;39.36;100299.31;146607;594;46012;-85
2021/11/30 12:56:54;;;;;;;;;3.67;3.33;;;;;22.53;38.24;100307.12;146608;569;46020;-79
2021/11/30 12:59:58;;;;;;;;;1.00;1.00;;;;;22.76;37.04;100304.34;146606;589;47012;-85
2021/11/30 13:02:51;;;;;;;;;2.67;1.67;;;;;22.86;33.66;100309.59;146609;602;46020;-78
2021/11/30 13:05:59;;;;;;;;;5.33;4.67;;;;;22.97;36.27;100318.37;146608;621;46012;-83
2021/11/30 13:09:09;;;;;;;;;1.33;1.33;;;;;23.07;35.63;100312.16;146608;596;46020;-78
2021/11/30 13:12:03;;;;;;;;;2.00;1.00;;;;;23.17;33.96;100320.91;146608;569;46012;-75
2021/11/30 13:14:56;;;;;;;;;3.00;3.00;;;;;23.25;32.99;100327.03;146606;636;46021;-73
2021/11/30 13:17:49;;;;;;;;;1.33;1.33;;;;;23.21;32.29;100326.16;146605;641;46016;-75
2021/11/30 13:20:42;;;;;;;;;1.33;1.33;;;;;22.43;29.52;100334.47;146609;564;46011;-76
2021/11/30 13:23:35;;;;;;;;;0.00;0.00;;;;;21.52;32.46;100338.06;146603;755;46016;-77
2021/11/30 13:26:27;;;;;;;;;0.33;0.33;;;;;20.74;29.32;100330.84;146609;569;46010;-78
2021/11/30 13:29:27;;;;;;;;;3.00;2.00;;;;;19.92;32.54;100349.72;146605;667;46017;-72
2021/11/30 13:32:29;;;;;;;;;2.00;1.67;;;;;19.47;31.71;100353.69;146609;608;46010;-72
2021/11/30 13:35:25;;;;;;;;;2.33;2.33;;;;;19.52;33.12;100352.84;146609;576;46012;-75
2021/11/30 13:38:42;;;;;;;;;3.00;2.00;;;;;19.43;32.68;100359.78;146609;599;46020;-79
2021/11/30 13:41:34;;;;;;;;;3.67;2.67;;;;;18.80;32.31;100370.50;146606;628;46016;-74
2021/11/30 13:44:26;;;;;;;;;1.00;1.00;;;;;18.25;33.55;100367.09;146609;569;46010;-75
2021/11/30 13:47:18;;;;;;;;;2.00;2.00;;;;;17.93;34.14;100382.38;146606;603;46016;-70
2021/11/30 13:50:14;;;;;;;;;2.67;1.67;;;;;17.65;36.06;100374.03;146607;583;46020;-71
2021/11/30 13:53:27;;;;;;;;;2.33;2.33;;;;;17.41;37.20;100384.94;146608;620;46016;-81